createdAt,value
2019-04-21T00:01:16.660Z,8.00
2019-04-21T00:03:53.328Z,8.00
2019-04-21T00:06:45.964Z,8.00
2019-04-21T00:09:11.492Z,8.00
2019-04-21T00:11:41.289Z,8.00
2019-04-21T00:14:01.888Z,8.00
2019-04-21T00:16:32.219Z,7.90
2019-04-21T00:19:09.379Z,7.90
2019-04-21T00:21:40.483Z,7.90
2019-04-21T00:24:23.947Z,7.80
2019-04-21T00:27:05.291Z,7.80
2019-04-21T00:29:33.939Z,7.70
2019-04-21T00:32:00.387Z,7.70
2019-04-21T00:34:17.487Z,7.70
2019-04-21T00:36:57.290Z,7.60
2019-04-21T00:39:48.854Z,7.60
2019-04-21T00:42:09.888Z,7.60
2019-04-21T00:44:35.519Z,7.50
2019-04-21T00:47:06.938Z,7.50
2019-04-21T00:49:47.772Z,7.50
2019-04-21T00:55:27.877Z,7.50
2019-04-21T00:57:58.520Z,7.40
2019-04-21T01:02:56.018Z,7.40
2019-04-21T01:05:27.141Z,7.40
2019-04-21T01:08:01.409Z,7.30
2019-04-21T01:10:21.072Z,7.30
2019-04-21T01:13:02.701Z,7.30
2019-04-21T01:15:37.105Z,7.30
2019-04-21T01:18:05.001Z,7.30
2019-04-21T01:20:17.629Z,7.30
2019-04-21T01:22:45.238Z,7.20
2019-04-21T01:25:22.892Z,7.20
2019-04-21T01:27:59.355Z,7.20
2019-04-21T01:30:42.961Z,7.10
2019-04-21T01:33:17.013Z,7.10
2019-04-21T01:35:42.583Z,7.10
2019-04-21T01:38:28.883Z,7.10
2019-04-21T01:41:17.964Z,7.00
2019-04-21T01:43:34.997Z,7.00
2019-04-21T01:46:11.223Z,7.00
2019-04-21T01:48:34.473Z,7.00
2019-04-21T01:51:08.533Z,7.00
2019-04-21T01:54:03.527Z,6.90
2019-04-21T01:56:51.176Z,7.00
2019-04-21T01:59:10.783Z,7.00
2019-04-21T02:01:59.297Z,7.00
2019-04-21T02:04:34.150Z,7.00
2019-04-21T02:07:01.036Z,7.00
2019-04-21T02:09:30.918Z,7.00
2019-04-21T02:12:08.724Z,7.00
2019-04-21T02:14:41.414Z,7.00
2019-04-21T02:17:11.744Z,7.00
2019-04-21T02:19:31.625Z,6.90
2019-04-21T02:21:59.566Z,6.90
2019-04-21T02:27:29.845Z,6.80
2019-04-21T02:30:14.258Z,6.70
2019-04-21T02:32:53.814Z,6.60
2019-04-21T02:35:25.555Z,6.60
2019-04-21T02:37:54.786Z,6.60
2019-04-21T02:40:24.070Z,6.50
2019-04-21T02:42:56.088Z,6.50
2019-04-21T02:45:23.310Z,6.40
2019-04-21T02:47:59.623Z,6.30
2019-04-21T02:52:53.954Z,6.20
2019-04-21T02:55:22.294Z,6.20
2019-04-21T03:04:00.702Z,6.10
2019-04-21T03:09:24.093Z,6.00
2019-04-21T03:11:59.470Z,5.90
2019-04-21T03:14:41.456Z,6.00
2019-04-21T03:16:47.174Z,6.00
2019-04-21T03:19:37.968Z,6.10
2019-04-21T03:22:11.865Z,6.10
2019-04-21T03:25:20.483Z,6.10
2019-04-21T03:29:57.062Z,6.10
2019-04-21T03:37:25.488Z,6.10
2019-04-21T03:39:54.452Z,6.20
2019-04-21T03:42:26.932Z,6.10
2019-04-21T03:50:11.375Z,6.20
2019-04-21T03:52:30.218Z,6.30
2019-04-21T04:09:45.650Z,6.60
2019-04-21T04:12:13.271Z,6.60
2019-04-21T04:19:49.384Z,6.90
2019-04-21T04:25:03.501Z,7.10
2019-04-21T04:29:59.045Z,7.40
2019-04-21T04:32:28.669Z,7.50
2019-04-21T04:35:03.422Z,7.50
2019-04-21T04:37:31.791Z,7.60
2019-04-21T04:42:39.222Z,8.00
2019-04-21T04:45:22.708Z,8.00
2019-04-21T04:50:00.813Z,7.60
2019-04-21T04:55:29.599Z,7.60
2019-04-21T04:57:54.069Z,7.60
2019-04-21T05:02:41.760Z,7.60
2019-04-21T05:05:20.702Z,7.80
2019-04-21T05:07:57.270Z,8.00
2019-04-21T05:10:27.595Z,8.20
2019-04-21T05:15:16.208Z,8.30
2019-04-21T05:17:52.484Z,8.50
2019-04-21T05:20:26.054Z,8.60
2019-04-21T05:22:53.280Z,8.70
2019-04-21T05:25:18.553Z,8.60
2019-04-21T05:27:50.016Z,8.60
2019-04-21T05:30:34.144Z,8.50
2019-04-21T05:33:13.095Z,8.80
2019-04-21T05:35:56.146Z,8.90
2019-04-21T05:38:23.341Z,9.10
2019-04-21T05:40:52.390Z,9.20
2019-04-21T05:43:32.255Z,9.20
2019-04-21T05:46:18.416Z,9.30
2019-04-21T05:48:36.393Z,9.30
2019-04-21T05:51:20.450Z,9.30
2019-04-21T05:53:56.166Z,9.20
2019-04-21T05:56:31.422Z,9.20
2019-04-21T05:58:57.502Z,9.40
2019-04-21T06:01:34.522Z,9.20
2019-04-21T06:04:07.596Z,9.30
2019-04-21T06:06:34.058Z,9.20
2019-04-21T06:09:01.965Z,9.20
2019-04-21T06:11:40.309Z,9.20
2019-04-21T06:14:08.269Z,9.20
2019-04-21T06:16:43.620Z,9.10
2019-04-21T06:19:05.218Z,9.40
2019-04-21T06:21:40.528Z,9.50
2019-04-21T06:24:11.534Z,9.80
2019-04-21T06:26:54.813Z,9.70
2019-04-21T06:29:18.146Z,10.10
2019-04-21T06:32:19.116Z,9.80
2019-04-21T06:34:16.736Z,10.10
2019-04-21T06:39:31.784Z,10.10
2019-04-21T06:42:05.312Z,10.50
2019-04-21T06:44:32.306Z,10.80
2019-04-21T06:47:07.675Z,10.70
2019-04-21T06:49:30.949Z,10.70
2019-04-21T06:52:20.564Z,10.90
2019-04-21T06:54:44.339Z,11.00
2019-04-21T06:57:11.777Z,11.20
2019-04-21T06:59:41.861Z,11.50
2019-04-21T07:04:43.384Z,11.30
2019-04-21T07:07:14.503Z,11.00
2019-04-21T07:10:04.860Z,11.30
2019-04-21T07:12:13.934Z,11.30
2019-04-21T07:14:49.834Z,10.80
2019-04-21T07:17:24.684Z,10.50
2019-04-21T07:19:55.184Z,10.50
2019-04-21T07:22:24.516Z,10.70
2019-04-21T07:25:00.659Z,10.90
2019-04-21T07:27:31.948Z,11.10
2019-04-21T07:29:59.650Z,11.40
2019-04-21T07:32:29.875Z,11.70
2019-04-21T07:35:03.875Z,11.60
2019-04-21T07:37:31.649Z,11.10
2019-04-21T07:39:54.534Z,10.90
2019-04-21T07:42:24.086Z,10.90
2019-04-21T07:44:55.346Z,11.10
2019-04-21T07:47:34.322Z,11.10
2019-04-21T07:53:01.129Z,11.50
2019-04-21T07:57:56.235Z,10.90
2019-04-21T08:00:38.979Z,11.30
2019-04-21T08:03:09.366Z,10.90
2019-04-21T08:05:53.508Z,10.50
2019-04-21T08:07:59.550Z,10.80
2019-04-21T08:10:33.295Z,11.00
2019-04-21T08:13:09.498Z,10.90
2019-04-21T08:15:58.101Z,11.30
2019-04-21T08:18:34.997Z,11.70
2019-04-21T08:21:02.449Z,12.20
2019-04-21T08:23:31.878Z,12.70
2019-04-21T08:26:04.657Z,12.70
2019-04-21T08:28:42.681Z,12.60
2019-04-21T08:31:09.865Z,12.60
2019-04-21T08:36:19.308Z,12.90
2019-04-21T08:38:41.736Z,12.80
2019-04-21T08:41:12.320Z,12.70
2019-04-21T08:43:44.621Z,12.70
2019-04-21T08:46:21.103Z,12.70
2019-04-21T08:48:49.477Z,12.20
2019-04-21T08:56:30.374Z,12.40
2019-04-21T08:59:05.458Z,12.30
2019-04-21T09:04:13.106Z,12.10
2019-04-21T09:09:17.906Z,12.50
2019-04-21T09:11:49.915Z,12.70
2019-04-21T09:14:20.742Z,13.10
2019-04-21T09:16:46.018Z,13.30
2019-04-21T09:19:34.041Z,13.20
2019-04-21T09:21:59.498Z,13.00
2019-04-21T09:24:41.200Z,13.10
2019-04-21T09:26:54.217Z,13.50
2019-04-21T09:29:19.504Z,14.00
2019-04-21T09:31:42.786Z,14.00
2019-04-21T09:34:20.030Z,14.20
2019-04-21T09:36:46.708Z,14.00
2019-04-21T09:39:18.260Z,14.10
2019-04-21T09:41:44.945Z,14.50
2019-04-21T09:44:22.052Z,14.20
2019-04-21T09:46:50.640Z,14.20
2019-04-21T09:49:21.747Z,14.30
2019-04-21T09:51:48.386Z,14.70
2019-04-21T09:54:24.958Z,14.80
2019-04-21T09:56:54.953Z,15.10
2019-04-21T09:59:28.179Z,15.00
2019-04-21T10:01:59.260Z,14.30
2019-04-21T10:04:23.185Z,14.40
2019-04-21T10:06:54.304Z,14.80
2019-04-21T10:09:24.348Z,15.10
2019-04-21T10:15:26.308Z,14.60
2019-04-21T10:20:51.847Z,13.80
2019-04-21T10:23:21.457Z,13.20
2019-04-21T10:25:50.976Z,13.20
2019-04-21T10:28:21.109Z,13.40
2019-04-21T10:30:51.041Z,13.40
2019-04-21T10:33:19.908Z,13.30
2019-04-21T10:35:49.344Z,13.40
2019-04-21T10:38:28.219Z,13.60
2019-04-21T10:40:49.716Z,13.60
2019-04-21T10:43:22.166Z,13.50
2019-04-21T10:45:50.773Z,13.60
2019-04-21T10:48:20.990Z,13.60
2019-04-21T10:50:52.689Z,13.80
2019-04-21T10:53:31.078Z,13.50
2019-04-21T10:56:12.193Z,13.60
2019-04-21T10:58:34.143Z,13.60
2019-04-21T11:01:14.368Z,13.70
2019-04-21T11:03:46.650Z,13.30
2019-04-21T11:06:18.892Z,13.10
2019-04-21T11:08:52.368Z,13.00
2019-04-21T11:11:19.998Z,12.90
2019-04-21T11:13:48.858Z,13.00
2019-04-21T11:16:19.205Z,13.20
2019-04-21T11:18:51.495Z,13.40
2019-04-21T11:21:21.287Z,13.40
2019-04-21T11:23:50.193Z,13.50
2019-04-21T11:26:19.995Z,13.50
2019-04-21T11:28:50.531Z,13.40
2019-04-21T11:31:20.930Z,13.00
2019-04-21T11:33:51.211Z,13.00
2019-04-21T11:36:21.606Z,13.10
2019-04-21T11:39:07.222Z,13.10
2019-04-21T11:41:24.001Z,13.20
2019-04-21T11:43:53.167Z,13.30
2019-04-21T11:46:22.675Z,13.40
2019-04-21T11:48:52.543Z,13.50
2019-04-21T11:51:22.804Z,13.80
2019-04-21T11:53:52.953Z,13.90
2019-04-21T11:56:23.089Z,13.70
2019-04-21T11:58:54.080Z,13.40
2019-04-21T12:01:25.502Z,13.20
2019-04-21T12:03:55.719Z,12.90
2019-04-21T12:06:32.324Z,12.80
2019-04-21T12:08:59.349Z,12.80
2019-04-21T12:11:27.653Z,12.70
2019-04-21T12:13:56.444Z,12.70
2019-04-21T12:16:25.910Z,12.60
2019-04-21T12:19:14.585Z,12.70
2019-04-21T12:21:53.462Z,12.90
2019-04-21T12:24:15.460Z,13.10
2019-04-21T12:26:44.747Z,13.10
2019-04-21T12:29:14.638Z,13.20
2019-04-21T12:31:55.175Z,13.30
2019-04-21T12:34:44.202Z,13.30
2019-04-21T12:37:15.012Z,13.30
2019-04-21T12:39:45.092Z,13.30
2019-04-21T12:42:14.852Z,13.30
2019-04-21T12:44:45.436Z,13.20
2019-04-21T12:47:16.240Z,13.20
2019-04-21T12:49:46.084Z,13.20
2019-04-21T12:52:15.617Z,13.20
2019-04-21T12:54:45.875Z,13.30
2019-04-21T12:57:30.216Z,13.40
2019-04-21T12:59:58.888Z,13.40
2019-04-21T13:02:29.542Z,13.60
2019-04-21T13:04:59.716Z,13.70
2019-04-21T13:07:31.201Z,13.50
2019-04-21T13:10:02.351Z,13.60
2019-04-21T13:12:33.279Z,13.60
2019-04-21T13:15:04.229Z,13.70
2019-04-21T13:17:35.293Z,13.80
2019-04-21T13:20:07.340Z,14.00
2019-04-21T13:22:57.711Z,14.00
2019-04-21T13:25:27.808Z,14.20
2019-04-21T13:27:58.672Z,14.20
2019-04-21T13:30:28.489Z,14.40
2019-04-21T13:32:58.892Z,14.40
2019-04-21T13:35:28.912Z,14.50
2019-04-21T13:37:58.637Z,14.60
2019-04-21T13:40:49.933Z,14.80
2019-04-21T13:43:06.605Z,14.80
2019-04-21T13:45:35.917Z,14.70
2019-04-21T13:48:06.675Z,14.60
2019-04-21T13:50:37.349Z,14.60
2019-04-21T13:53:07.035Z,14.40
2019-04-21T13:55:37.063Z,14.40
2019-04-21T13:58:08.413Z,14.30
2019-04-21T14:00:38.297Z,14.20
2019-04-21T14:03:07.204Z,14.30
2019-04-21T14:05:38.124Z,14.30
2019-04-21T14:08:09.159Z,14.40
2019-04-21T14:10:39.806Z,14.60
2019-04-21T14:13:09.397Z,14.80
2019-04-21T14:15:38.167Z,15.00
2019-04-21T14:18:08.764Z,15.10
2019-04-21T14:20:39.544Z,15.10
2019-04-21T14:23:20.513Z,15.00
2019-04-21T14:25:41.619Z,15.10
2019-04-21T14:28:14.246Z,15.00
2019-04-21T14:30:44.296Z,15.10
2019-04-21T14:33:14.173Z,15.00
2019-04-21T14:35:45.107Z,14.80
2019-04-21T14:38:16.538Z,14.70
2019-04-21T14:40:46.250Z,14.70
2019-04-21T14:43:16.438Z,14.70
2019-04-21T14:45:48.454Z,14.70
2019-04-21T14:48:23.202Z,14.70
2019-04-21T14:50:54.674Z,14.70
2019-04-21T14:53:25.796Z,14.80
2019-04-21T14:55:57.386Z,14.90
2019-04-21T14:58:27.415Z,15.20
2019-04-21T15:01:18.136Z,15.30
2019-04-21T15:03:47.894Z,15.30
2019-04-21T15:06:17.540Z,15.30
2019-04-21T15:08:47.085Z,15.30
2019-04-21T15:11:17.995Z,15.10
2019-04-21T15:13:48.123Z,15.00
2019-04-21T15:16:18.699Z,15.00
2019-04-21T15:18:48.636Z,15.10
2019-04-21T15:21:19.428Z,15.10
2019-04-21T15:23:50.583Z,15.10
2019-04-21T15:26:20.323Z,15.10
2019-04-21T15:28:50.946Z,15.10
2019-04-21T15:31:28.759Z,15.20
2019-04-21T15:33:52.854Z,15.30
2019-04-21T15:36:22.906Z,15.40
2019-04-21T15:38:53.987Z,15.50
2019-04-21T15:41:24.689Z,15.60
2019-04-21T15:43:54.418Z,15.70
2019-04-21T15:46:24.867Z,15.80
2019-04-21T15:49:15.500Z,15.80
2019-04-21T15:51:46.376Z,15.90
2019-04-21T15:54:16.511Z,15.80
2019-04-21T15:59:30.601Z,15.60
2019-04-21T16:02:04.227Z,15.50
2019-04-21T16:04:36.799Z,15.30
2019-04-21T16:07:08.356Z,15.10
2019-04-21T16:09:46.135Z,15.00
2019-04-21T16:12:17.809Z,14.90
2019-04-21T16:14:47.706Z,14.70
2019-04-21T16:17:17.088Z,14.50
2019-04-21T16:19:46.192Z,14.50
2019-04-21T16:22:16.799Z,14.40
2019-04-21T16:24:47.775Z,14.20
2019-04-21T16:27:17.610Z,14.10
2019-04-21T16:29:47.906Z,14.00
2019-04-21T16:32:19.770Z,13.90
2019-04-21T16:34:54.371Z,13.90
2019-04-21T16:37:19.949Z,13.80
2019-04-21T16:39:49.523Z,13.70
2019-04-21T16:42:22.529Z,13.50
2019-04-21T16:44:52.770Z,13.30
2019-04-21T16:47:24.165Z,13.30
2019-04-21T16:49:53.999Z,13.20
2019-04-21T16:52:25.903Z,13.10
2019-04-21T16:57:43.816Z,12.80
2019-04-21T17:00:26.874Z,12.70
2019-04-21T17:02:48.330Z,12.50
2019-04-21T17:05:18.317Z,12.40
2019-04-21T17:07:49.237Z,12.30
2019-04-21T17:10:20.277Z,12.20
2019-04-21T17:12:51.004Z,12.10
2019-04-21T17:15:51.914Z,12.00
2019-04-21T17:18:22.812Z,11.90
2019-04-21T17:20:46.096Z,11.90
2019-04-21T17:23:07.173Z,11.80
2019-04-21T17:25:37.184Z,11.70
2019-04-21T17:28:07.838Z,11.60
2019-04-21T17:30:37.766Z,11.50
2019-04-21T17:33:10.287Z,11.50
2019-04-21T17:35:39.109Z,11.40
2019-04-21T17:38:09.857Z,11.30
2019-04-21T17:40:40.004Z,11.20
2019-04-21T17:43:14.386Z,11.20
2019-04-21T17:45:41.403Z,11.20
2019-04-21T17:48:14.946Z,11.00
2019-04-21T17:50:45.364Z,10.90
2019-04-21T17:53:27.840Z,10.90
2019-04-21T17:56:15.255Z,10.80
2019-04-21T17:58:48.727Z,10.80
2019-04-21T18:03:53.547Z,10.60
2019-04-21T18:06:11.235Z,10.50
2019-04-21T18:08:46.209Z,10.40
2019-04-21T18:11:42.519Z,10.30
2019-04-21T18:13:49.886Z,10.10
2019-04-21T18:16:25.078Z,10.00
2019-04-21T18:18:50.757Z,9.90
2019-04-21T18:21:32.364Z,9.90
2019-04-21T18:24:08.032Z,9.80
2019-04-21T18:26:41.763Z,9.80
2019-04-21T18:29:07.526Z,9.70
2019-04-21T18:31:44.814Z,9.60
2019-04-21T18:34:29.270Z,9.60
2019-04-21T18:37:04.868Z,9.50
2019-04-21T18:42:39.848Z,9.40
2019-04-21T18:51:04.795Z,9.20
2019-04-21T18:53:47.001Z,9.20
2019-04-21T18:56:20.983Z,9.10
2019-04-21T18:58:50.993Z,9.00
2019-04-21T19:01:27.273Z,8.90
2019-04-21T19:03:55.641Z,8.80
2019-04-21T19:06:44.286Z,8.80
2019-04-21T19:09:11.568Z,8.70
2019-04-21T19:11:44.994Z,8.70
2019-04-21T19:14:29.035Z,8.60
2019-04-21T19:16:59.072Z,8.60
2019-04-21T19:19:41.427Z,8.70
2019-04-21T19:21:55.875Z,8.70
2019-04-21T19:24:59.506Z,8.70
2019-04-21T19:27:18.939Z,8.60
2019-04-21T19:29:51.901Z,8.60
2019-04-21T19:32:19.912Z,8.50
2019-04-21T19:34:34.739Z,8.40
2019-04-21T19:37:10.855Z,8.30
2019-04-21T19:39:48.845Z,8.30
2019-04-21T19:42:30.915Z,8.10
2019-04-21T19:45:06.095Z,8.10
2019-04-21T19:47:39.832Z,8.10
2019-04-21T19:50:11.589Z,8.00
2019-04-21T19:52:34.537Z,8.00
2019-04-21T19:54:56.195Z,7.90
2019-04-21T19:57:25.104Z,7.80
2019-04-21T19:59:59.131Z,7.80
2019-04-21T20:02:26.792Z,7.70
2019-04-21T20:05:02.131Z,7.70
2019-04-21T20:07:43.825Z,7.60
2019-04-21T20:10:23.991Z,7.60
2019-04-21T20:12:50.313Z,7.60
2019-04-21T20:15:33.075Z,7.50
2019-04-21T20:17:50.339Z,7.50
2019-04-21T20:20:07.358Z,7.40
2019-04-21T20:22:51.947Z,7.40
2019-04-21T20:25:23.178Z,7.40
2019-04-21T20:28:00.684Z,7.40
2019-04-21T20:30:42.460Z,7.30
2019-04-21T20:33:38.017Z,7.30
2019-04-21T20:35:53.361Z,7.30
2019-04-21T20:38:14.876Z,7.30
2019-04-21T20:40:35.632Z,7.20
2019-04-21T20:43:16.444Z,7.30
2019-04-21T20:45:55.625Z,7.20
2019-04-21T20:48:11.432Z,7.20
2019-04-21T20:50:43.436Z,7.20
2019-04-21T20:53:19.828Z,7.20
2019-04-21T20:55:48.558Z,7.20
2019-04-21T20:58:24.115Z,7.20
2019-04-21T21:01:06.381Z,7.10
2019-04-21T21:03:24.257Z,7.00
2019-04-21T21:05:50.435Z,7.00
2019-04-21T21:08:31.186Z,6.90
2019-04-21T21:10:57.523Z,6.90
2019-04-21T21:13:32.203Z,6.90
2019-04-21T21:16:13.817Z,6.90
2019-04-21T21:21:29.628Z,6.80
2019-04-21T21:24:03.469Z,6.80
2019-04-21T21:26:38.253Z,6.70
2019-04-21T21:29:01.973Z,6.70
2019-04-21T21:31:41.700Z,6.60
2019-04-21T21:34:16.518Z,6.60
2019-04-21T21:36:41.802Z,6.50
2019-04-21T21:39:10.950Z,6.50
2019-04-21T21:41:33.625Z,6.40
2019-04-21T21:44:05.868Z,6.40
2019-04-21T21:46:44.524Z,6.40
2019-04-21T21:49:33.785Z,6.40
2019-04-21T21:52:02.962Z,6.40
2019-04-21T21:54:23.206Z,6.40
2019-04-21T21:57:04.940Z,6.30
2019-04-21T21:59:37.968Z,6.30
2019-04-21T22:02:09.463Z,6.30
2019-04-21T22:04:38.940Z,6.20
2019-04-21T22:07:12.427Z,6.20
2019-04-21T22:09:39.971Z,6.20
2019-04-21T22:12:10.995Z,6.20
2019-04-21T22:14:46.544Z,6.20
2019-04-21T22:17:33.163Z,6.20
2019-04-21T22:20:03.079Z,6.20
2019-04-21T22:22:28.100Z,6.10
2019-04-21T22:24:55.759Z,6.10
2019-04-21T22:27:17.110Z,6.10
2019-04-21T22:29:50.021Z,6.10
2019-04-21T22:32:25.017Z,6.00
2019-04-21T22:34:54.812Z,6.00
2019-04-21T22:37:36.759Z,6.00
2019-04-21T22:40:07.111Z,5.90
2019-04-21T22:42:31.744Z,5.90
2019-04-21T22:45:00.718Z,5.90
2019-04-21T22:47:43.297Z,5.80
2019-04-21T22:50:38.381Z,5.90
2019-04-21T22:53:10.216Z,5.80
2019-04-21T22:55:40.849Z,5.80
2019-04-21T22:58:11.510Z,5.80
2019-04-21T23:04:07.178Z,5.70
2019-04-21T23:06:39.189Z,5.70
2019-04-21T23:09:10.842Z,5.70
2019-04-21T23:11:45.636Z,5.70
2019-04-21T23:14:14.960Z,5.60
2019-04-21T23:16:45.672Z,5.60
2019-04-21T23:19:31.174Z,5.60
2019-04-21T23:22:03.573Z,5.50
2019-04-21T23:24:42.959Z,5.50
2019-04-21T23:27:05.702Z,5.50
2019-04-21T23:29:48.341Z,5.50
2019-04-21T23:32:11.019Z,5.50
2019-04-21T23:34:26.590Z,5.40
2019-04-21T23:37:05.509Z,5.50
2019-04-21T23:39:30.278Z,5.40
2019-04-21T23:41:59.196Z,5.40
2019-04-21T23:44:33.865Z,5.40
2019-04-21T23:47:04.782Z,5.40
2019-04-21T23:49:42.966Z,5.30
2019-04-21T23:52:06.741Z,5.30
2019-04-21T23:54:33.518Z,5.30
2019-04-21T23:57:12.912Z,5.20
2019-04-21T23:59:40.856Z,5.20
